Kalalock, Washington
Current Conditions -  °F | °C
As of 3:34 AM on Tuesday 21 Oct 2014 (Local Time) from KUIL Reporting Station
Light Rain Light Rain  
Wind Chill: 53°   Ceiling: 4200
Heat Index: 53°   Visibility: 4mi
Dew Point: 53°   Wind: 0mph
Humidity: 100%   Direction: NA
Pressure: 29.76"   Gusts: NA
Location:  47.9519°N, 124.29°W
Report Text: KUIL 211034Z AUTO 00000KT 4SM -RA BR FEW025 BKN042 OVC050 12/12 A2976 RMK AO2 P0011 T01170117
Loading
Personal Weather Stations






























Interactive Weather Map
Tropical Storm Tracking
New forecast layout! Learn more

10-Day Weather Forecast

Advertisements
Track Severe Weather on mobile